Time;durP1;ratioP1;P1;durP2;ratioP2;P2;SDS_P1;SDS_P2;PMS_P1;PMS_P2;Temp;Humidity;BMP_temperature;BMP_pressure;BME280_temperature;BME280_humidity;BME280_pressure;Samples;Min_cycle;Max_cycle;Signal;HPM_P1;HPM_P2
2023/09/08 07:20:12;;;;;;;2.80;1.60;;;;;;;28.49;34.92;101630.52;108936;1253;59182;-83
2023/09/08 07:22:39;;;;;;;7.10;2.40;;;;;;;28.68;34.38;101623.88;108989;1253;59149;-83
2023/09/08 07:25:09;;;;;;;6.30;1.90;;;;;;;28.82;33.94;101620.42;109078;1254;65802;-83
2023/09/08 07:27:37;;;;;;;4.10;1.70;;;;;;;28.94;33.79;101614.84;108885;1253;59602;-83
2023/09/08 07:30:06;;;;;;;6.00;1.70;;;;;;;29.26;33.37;101614.95;109067;1253;63783;-82
2023/09/08 07:32:34;;;;;;;8.00;2.00;;;;;;;29.24;33.08;101617.65;109015;1253;59592;-83
2023/09/08 07:35:02;;;;;;;4.90;1.90;;;;;;;29.35;33.00;101617.73;109038;1254;59133;-83
2023/09/08 07:37:30;;;;;;;5.40;1.90;;;;;;;29.41;33.12;101615.08;109031;1253;65717;-82
2023/09/08 07:39:58;;;;;;;5.80;1.60;;;;;;;29.56;33.27;101614.15;109056;1253;60002;-81
2023/09/08 07:42:27;;;;;;;3.50;1.80;;;;;;;29.68;32.73;101609.16;109030;1254;62517;-82
2023/09/08 07:44:55;;;;;;;5.30;1.70;;;;;;;29.73;32.17;101608.45;109077;1253;59270;-81
2023/09/08 07:47:23;;;;;;;3.30;1.50;;;;;;;29.66;31.71;101606.40;108962;1254;59331;-83
2023/09/08 07:49:50;;;;;;;3.40;1.30;;;;;;;29.56;32.16;101599.27;109017;1253;64537;-82
2023/09/08 07:52:18;;;;;;;3.70;2.00;;;;;;;29.77;32.20;101599.48;109064;1253;59829;-86
2023/09/08 07:54:46;;;;;;;2.90;1.60;;;;;;;29.96;32.09;101593.59;108943;1253;63705;-81
2023/09/08 07:57:14;;;;;;;4.40;1.50;;;;;;;30.05;31.75;101591.67;108956;1253;59523;-81
2023/09/08 07:59:41;;;;;;;4.30;1.60;;;;;;;29.96;31.61;101591.49;109045;1253;59603;-81
2023/09/08 08:02:10;;;;;;;4.80;1.60;;;;;;;29.97;31.60;101584.10;108993;1253;66252;-81
2023/09/08 08:04:38;;;;;;;6.60;1.80;;;;;;;30.05;31.32;101585.31;108988;1253;59736;-81
2023/09/08 08:07:06;;;;;;;3.80;1.40;;;;;;;29.97;31.07;101589.01;108939;1256;62529;-81
2023/09/08 08:09:34;;;;;;;2.50;1.50;;;;;;;29.86;31.44;101584.46;108983;1253;59808;-81
2023/09/08 08:12:01;;;;;;;3.60;1.50;;;;;;;29.97;31.63;101582.33;109096;1253;59592;-81
2023/09/08 08:14:29;;;;;;;2.80;1.40;;;;;;;30.15;31.07;101580.34;109011;1253;64489;-81
2023/09/08 08:16:57;;;;;;;5.40;1.80;;;;;;;30.22;30.12;101577.30;109060;1253;59756;-81
2023/09/08 08:19:25;;;;;;;4.50;1.80;;;;;;;30.17;29.95;101574.41;109033;1253;63763;-81
2023/09/08 08:21:56;;;;;;;7.90;2.00;;;;;;;30.15;30.25;101571.17;109191;1253;59563;-81
2023/09/08 08:24:24;;;;;;;5.50;1.80;;;;;;;30.14;30.24;101572.77;109059;1253;59272;-81
2023/09/08 08:26:51;;;;;;;2.90;1.60;;;;;;;30.16;29.72;101576.58;109054;1253;65734;-81
2023/09/08 08:29:19;;;;;;;3.60;1.40;;;;;;;30.30;30.09;101576.09;109130;1253;59814;-81
2023/09/08 08:31:47;;;;;;;4.90;1.70;;;;;;;30.35;30.18;101576.15;109005;1253;62520;-81
2023/09/08 08:34:15;;;;;;;3.90;1.80;;;;;;;30.28;30.08;101569.39;108986;1253;59287;-81
2023/09/08 08:36:43;;;;;;;3.40;2.40;;;;;;;30.36;30.10;101567.21;109113;1253;60018;-81
2023/09/08 08:39:10;;;;;;;6.40;2.80;;;;;;;30.51;30.18;101562.74;109046;1253;67978;-81
2023/09/08 08:41:40;;;;;;;7.10;2.00;;;;;;;30.64;30.13;101562.55;108989;1253;59401;-81
2023/09/08 08:44:08;;;;;;;4.50;1.50;;;;;;;30.77;30.20;101560.95;108850;1253;62514;-81
2023/09/08 08:46:37;;;;;;;4.60;2.30;;;;;;;30.90;30.23;101561.40;109058;1253;59148;-81
2023/09/08 08:49:04;;;;;;;6.10;2.10;;;;;;;30.92;30.12;101554.47;109067;1253;58968;-81
2023/09/08 08:51:32;;;;;;;4.80;2.00;;;;;;;30.94;30.24;101553.76;109003;1253;65826;-81
2023/09/08 08:54:04;;;;;;;3.70;2.00;;;;;;;31.13;30.04;101555.97;109155;1253;60058;-81
2023/09/08 08:56:32;;;;;;;5.70;1.70;;;;;;;31.02;29.41;101550.09;109052;1253;63723;-81
2023/09/08 08:58:59;;;;;;;5.50;1.50;;;;;;;30.85;29.31;101550.05;108928;1253;59087;-81
2023/09/08 09:01:28;;;;;;;3.90;1.70;;;;;;;30.84;29.30;101545.54;108880;1253;59599;-82
2023/09/08 09:03:56;;;;;;;2.00;1.00;;;;;;;30.87;29.11;101544.60;108999;1253;64557;-81
2023/09/08 09:06:24;;;;;;;3.10;0.90;;;;;;;30.98;27.90;101541.52;109014;1253;60480;-81
2023/09/08 09:08:52;;;;;;;3.60;1.50;;;;;;;31.06;27.62;101539.48;108976;1253;63859;-81
2023/09/08 09:11:20;;;;;;;4.60;1.20;;;;;;;31.15;27.23;101538.08;109024;1253;59285;-81
2023/09/08 09:13:48;;;;;;;5.10;1.30;;;;;;;31.37;27.23;101534.56;109045;1254;59754;-82
2023/09/08 09:16:15;;;;;;;2.90;1.10;;;;;;;31.46;26.72;101530.92;108996;1253;177419;-81
2023/09/08 09:19:25;;;;;;;1.70;0.80;;;;;;;31.44;26.43;101528.73;108967;1253;59911;-81
2023/09/08 09:21:57;;;;;;;2.10;1.00;;;;;;;31.55;25.98;101528.92;108937;1253;65811;-81
2023/09/08 09:24:34;;;;;;;;;;;;;;;31.78;25.49;101525.84;109090;1252;59521;-81
2023/09/08 09:27:06;;;;;;;2.50;0.90;;;;;;;31.82;25.73;101525.71;109044;1253;59616;-81
2023/09/08 09:29:34;;;;;;;4.20;1.20;;;;;;;31.76;25.52;101523.98;109042;1253;64527;-82
2023/09/08 09:32:04;;;;;;;1.10;0.70;;;;;;;31.67;25.15;101521.46;108909;1253;59808;-81
2023/09/08 09:34:32;;;;;;;3.70;1.00;;;;;;;31.71;24.50;101523.81;108975;1253;65664;-81
2023/09/08 09:36:59;;;;;;;1.80;1.00;;;;;;;31.69;24.45;101515.25;109014;1253;59209;-82
2023/09/08 09:39:28;;;;;;;3.60;1.00;;;;;;;31.44;24.82;101512.89;109024;1253;59221;-82
2023/09/08 09:41:56;;;;;;;5.40;1.20;;;;;;;31.40;25.52;101507.14;109044;1253;65916;-81
2023/09/08 09:44:24;;;;;;;2.50;1.00;;;;;;;31.58;25.32;101503.59;109062;1253;59880;-82
2023/09/08 09:46:53;;;;;;;1.30;1.00;;;;;;;31.75;24.52;101496.79;108982;1253;63758;-82
2023/09/08 09:49:21;;;;;;;3.00;1.10;;;;;;;31.77;24.59;101492.99;109045;1253;59222;-82
2023/09/08 09:51:52;;;;;;;1.80;0.90;;;;;;;31.75;24.68;101491.84;108967;1253;59764;-82
2023/09/08 09:54:20;;;;;;;3.60;1.10;;;;;;;31.63;25.03;101486.24;109019;1258;66263;-81
2023/09/08 09:56:48;;;;;;;3.20;1.10;;;;;;;31.54;25.37;101484.63;108967;1253;60101;-81
2023/09/08 09:59:18;;;;;;;2.60;1.20;;;;;;;31.53;25.14;101476.39;109047;1253;65508;-81
2023/09/08 10:01:46;;;;;;;2.50;1.30;;;;;;;31.52;25.26;101472.68;108844;1253;59876;-81
2023/09/08 10:04:15;;;;;;;18.60;2.30;;;;;;;31.56;25.21;101473.41;109046;1253;59002;-81
2023/09/08 10:06:43;;;;;;;3.40;1.00;;;;;;;31.66;25.17;101473.02;109017;1258;65766;-81
2023/09/08 10:09:13;;;;;;;3.70;1.20;;;;;;;31.56;24.82;101472.27;108936;1253;61338;-81
2023/09/08 10:11:50;;;;;;;2.00;1.00;;;;;;;31.31;25.07;101465.64;109039;1254;63762;-82
2023/09/08 10:14:19;;;;;;;2.60;1.00;;;;;;;31.41;24.91;101463.84;109051;1253;59192;-82
2023/09/08 10:16:52;;;;;;;1.50;0.90;;;;;;;31.62;24.78;101458.58;109106;1253;59293;-82
2023/09/08 10:19:20;;;;;;;2.70;0.90;;;;;;;31.53;24.99;101454.12;109116;1253;64563;-82
2023/09/08 10:21:47;;;;;;;3.10;0.90;;;;;;;31.48;24.79;101453.53;108966;1253;59745;-82
2023/09/08 10:24:25;;;;;;;5.50;1.20;;;;;;;31.59;24.44;101450.66;109032;1253;63787;-83
2023/09/08 10:27:08;;;;;;;4.00;2.20;;;;;;;31.87;24.26;101448.05;109127;1253;59723;-82
2023/09/08 10:29:37;;;;;;;2.20;1.00;;;;;;;32.06;24.40;101440.08;108994;1253;59777;-82
2023/09/08 10:32:08;;;;;;;4.90;1.10;;;;;;;32.18;24.31;101437.02;109059;1253;65970;-82
2023/09/08 10:34:36;;;;;;;;;;;;;;;32.18;24.30;101437.98;109039;1254;59923;-83
2023/09/08 10:37:21;;;;;;;4.30;1.10;;;;;;;31.94;24.63;101436.83;109108;1253;63737;-83
2023/09/08 10:39:49;;;;;;;2.40;1.10;;;;;;;32.24;24.51;101433.94;109028;1253;59707;-83
2023/09/08 10:42:17;;;;;;;3.50;1.30;;;;;;;32.21;24.91;101437.02;108995;1253;59770;-83
2023/09/08 10:44:49;;;;;;;3.70;1.00;;;;;;;32.11;24.85;101435.00;108954;1253;69281;-83
2023/09/08 10:47:22;;;;;;;2.20;1.10;;;;;;;32.09;24.50;101436.45;108884;1253;59776;-83
2023/09/08 10:49:53;;;;;;;2.50;0.90;;;;;;;32.10;24.67;101435.80;108988;1253;63746;-83
2023/09/08 10:52:24;;;;;;;3.60;1.20;;;;;;;32.02;24.95;101430.21;109117;1253;60969;-83
2023/09/08 10:54:54;;;;;;;1.70;1.10;;;;;;;31.83;24.96;101425.74;108996;1253;59518;-81
2023/09/08 10:57:23;;;;;;;2.90;1.20;;;;;;;31.92;24.53;101418.02;108991;1253;69232;-81
2023/09/08 10:59:55;;;;;;;5.00;1.20;;;;;;;32.02;24.76;101410.92;109008;1253;59993;-81
2023/09/08 11:02:41;;;;;;;;;;;;;;;32.04;24.97;101408.35;108980;1253;67761;-81
2023/09/08 11:05:13;;;;;;;1.80;1.10;;;;;;;32.19;24.87;101405.42;109033;1254;59597;-81
2023/09/08 11:07:42;;;;;;;2.50;1.00;;;;;;;32.32;24.78;101403.30;108970;1253;59240;-82
2023/09/08 11:10:11;;;;;;;2.40;1.20;;;;;;;32.59;24.06;101401.33;108904;1254;65727;-82
2023/09/08 11:12:39;;;;;;;1.60;1.00;;;;;;;32.69;23.76;101392.73;109045;1255;59679;-82
2023/09/08 11:15:08;;;;;;;3.20;1.20;;;;;;;32.55;23.96;101385.02;108990;1253;63798;-82
2023/09/08 11:17:39;;;;;;;3.90;1.20;;;;;;;32.56;23.79;101385.02;109009;1253;60344;-81
2023/09/08 11:20:10;;;;;;;5.30;1.20;;;;;;;32.50;23.26;101380.49;108984;1254;59274;-82
2023/09/08 11:22:39;;;;;;;2.40;1.00;;;;;;;32.32;22.48;101374.06;109107;1253;67181;-82
2023/09/08 11:25:07;;;;;;;6.20;1.30;;;;;;;32.20;22.52;101365.93;109024;1253;61070;-82
2023/09/08 11:27:35;;;;;;;2.80;1.10;;;;;;;32.44;22.77;101357.23;109147;1253;63742;-82
2023/09/08 11:30:04;;;;;;;2.50;1.40;;;;;;;32.58;22.53;101359.39;108959;1253;59259;-83
2023/09/08 11:32:33;;;;;;;3.10;1.10;;;;;;;32.49;22.63;101357.06;109006;1254;59994;-81
2023/09/08 11:35:07;;;;;;;2.70;1.00;;;;;;;32.40;23.03;101354.50;108998;1254;75235;-82
2023/09/08 11:37:39;;;;;;;2.60;1.50;;;;;;;32.37;23.28;101351.27;109133;1254;59980;-83
2023/09/08 11:40:14;;;;;;;4.90;1.60;;;;;;;32.33;23.65;101344.17;108941;1254;64637;-82
2023/09/08 11:42:44;;;;;;;3.90;1.70;;;;;;;32.35;23.42;101340.04;109024;1253;59104;-82
2023/09/08 11:45:21;;;;;;;4.80;1.50;;;;;;;32.48;23.35;101340.73;109084;1253;59230;-82
2023/09/08 11:47:49;;;;;;;3.30;1.70;;;;;;;32.72;23.02;101339.69;109136;1254;69333;-82
2023/09/08 11:50:18;;;;;;;1.90;1.30;;;;;;;32.95;22.72;101338.05;109031;1253;61092;-81
2023/09/08 11:52:48;;;;;;;3.40;1.50;;;;;;;33.28;22.33;101331.23;109204;1253;65947;-81
2023/09/08 11:55:15;;;;;;;3.50;1.60;;;;;;;33.23;22.68;101328.13;109115;1253;59129;-82
2023/09/08 11:57:45;;;;;;;4.10;1.60;;;;;;;33.21;22.76;101326.92;109050;1253;59885;-82
2023/09/08 12:00:17;;;;;;;3.00;1.30;;;;;;;33.18;22.61;101320.06;108988;1253;66803;-82
2023/09/08 12:02:46;;;;;;;3.10;1.40;;;;;;;33.40;22.55;101315.46;109052;1254;59718;-82
2023/09/08 12:05:34;;;;;;;4.10;1.50;;;;;;;33.60;22.76;101312.73;109049;1254;67123;-82
2023/09/08 12:08:04;;;;;;;3.20;1.80;;;;;;;33.95;22.32;101315.26;109034;1253;59423;-83
2023/09/08 12:10:42;;;;;;;2.10;1.60;;;;;;;34.03;21.31;101313.00;109118;1253;59051;-83
2023/09/08 12:13:10;;;;;;;2.80;1.30;;;;;;;34.03;21.18;101310.16;109196;1253;64708;-81
2023/09/08 12:15:39;;;;;;;3.20;1.70;;;;;;;34.10;21.22;101311.15;109077;1253;59234;-81
2023/09/08 12:18:11;;;;;;;2.80;1.80;;;;;;;33.78;21.41;101304.23;109049;1252;62487;-81
2023/09/08 12:20:39;;;;;;;2.90;1.90;;;;;;;33.67;21.80;101295.91;109081;1252;59074;-81
2023/09/08 12:23:18;;;;;;;5.00;2.10;;;;;;;33.85;21.44;101293.08;109195;1253;59209;-82
2023/09/08 12:25:50;;;;;;;27.70;3.40;;;;;;;34.06;21.06;101288.34;109142;1253;64533;-82
2023/09/08 12:28:20;;;;;;;6.80;1.80;;;;;;;34.28;20.58;101277.41;109061;1253;59959;-83
2023/09/08 12:38:32;;;;;;;3.00;1.70;;;;;;;34.44;20.92;101272.43;105707;1291;600822;-83
2023/09/08 12:41:00;;;;;;;2.90;1.30;;;;;;;34.32;20.99;101272.50;108170;1267;57466;-81
2023/09/08 12:43:28;;;;;;;3.70;1.40;;;;;;;34.24;20.99;101270.90;108171;1267;57693;-81
2023/09/08 12:45:56;;;;;;;4.10;1.60;;;;;;;34.14;20.77;101270.42;108206;1267;62123;-81
2023/09/08 12:48:24;;;;;;;2.30;1.40;;;;;;;33.84;20.84;101264.73;107977;1267;60890;-81
2023/09/08 12:50:52;;;;;;;3.10;1.60;;;;;;;33.48;21.47;101254.77;108079;1268;62527;-81
2023/09/08 12:53:21;;;;;;;6.90;2.00;;;;;;;33.26;21.71;101249.78;108117;1266;192313;-81
2023/09/08 12:55:49;;;;;;;6.40;1.70;;;;;;;33.18;21.81;101249.60;108400;1265;57311;-81
2023/09/08 12:58:17;;;;;;;3.00;1.40;;;;;;;33.24;22.34;101246.80;108304;1265;63328;-81
2023/09/08 13:00:44;;;;;;;2.10;1.40;;;;;;;33.13;22.03;101243.83;108349;1265;61757;-81
2023/09/08 13:03:12;;;;;;;3.90;1.90;;;;;;;32.89;22.30;101242.66;108322;1266;63829;-81
2023/09/08 13:05:40;;;;;;;2.70;1.70;;;;;;;32.80;22.41;101240.30;108311;1265;57519;-82
2023/09/08 13:08:09;;;;;;;2.10;1.40;;;;;;;32.90;22.29;101231.58;108326;1265;58147;-82
2023/09/08 13:10:37;;;;;;;2.90;1.30;;;;;;;33.03;22.11;101231.50;108314;1265;64128;-82
2023/09/08 13:13:04;;;;;;;3.90;1.70;;;;;;;33.21;22.00;101229.03;108406;1265;58643;-82
2023/09/08 13:15:32;;;;;;;2.20;1.80;;;;;;;33.29;22.25;101227.27;108314;1265;66138;-82
2023/09/08 13:18:00;;;;;;;4.40;1.90;;;;;;;33.43;22.12;101226.02;108358;1265;57564;-82
2023/09/08 13:20:28;;;;;;;8.70;2.90;;;;;;;33.57;22.04;101224.53;108328;1265;58078;-82
2023/09/08 13:22:56;;;;;;;6.70;1.90;;;;;;;33.70;21.94;101224.88;108399;1265;62940;-82
2023/09/08 13:25:24;;;;;;;3.60;1.50;;;;;;;33.75;21.71;101221.19;108326;1265;60291;-82
2023/09/08 13:27:52;;;;;;;4.20;1.50;;;;;;;33.91;21.74;101220.05;108226;1265;62507;-82
2023/09/08 13:30:22;;;;;;;3.40;1.50;;;;;;;34.03;21.36;101213.84;108291;1265;57589;-82
2023/09/08 13:32:50;;;;;;;6.30;1.90;;;;;;;34.09;21.36;101210.38;108590;1262;58213;-81
2023/09/08 13:35:18;;;;;;;5.20;1.50;;;;;;;34.23;21.46;101210.55;108589;1262;64287;-82
2023/09/08 13:37:46;;;;;;;5.20;1.50;;;;;;;34.28;21.74;101210.56;108551;1262;59096;-82
2023/09/08 13:40:14;;;;;;;2.90;1.70;;;;;;;34.25;21.68;101205.23;108389;1265;64262;-82
2023/09/08 13:42:42;;;;;;;6.20;1.90;;;;;;;34.40;21.40;101194.11;108626;1261;58201;-82
2023/09/08 13:45:09;;;;;;;2.20;1.40;;;;;;;34.29;21.50;101194.64;108590;1262;58020;-82
2023/09/08 13:47:38;;;;;;;2.40;1.60;;;;;;;34.07;21.47;101192.23;108509;1267;64283;-82
2023/09/08 13:50:09;;;;;;;2.50;1.20;;;;;;;33.92;21.84;101189.25;108432;1262;68330;-82
2023/09/08 13:52:39;;;;;;;3.10;1.60;;;;;;;33.87;21.76;101185.28;108541;1262;63778;-82
2023/09/08 13:55:10;;;;;;;3.00;1.70;;;;;;;33.85;21.75;101186.58;108575;1262;57735;-82
2023/09/08 13:57:58;;;;;;;4.70;1.60;;;;;;;33.72;21.75;101185.75;108390;1262;58066;-83
2023/09/08 14:00:29;;;;;;;5.30;1.80;;;;;;;33.63;21.83;101176.39;108525;1262;64139;-83
2023/09/08 14:02:58;;;;;;;5.80;1.60;;;;;;;33.62;22.18;101173.48;108567;1262;59963;-82
2023/09/08 14:05:32;;;;;;;3.20;1.60;;;;;;;33.46;22.50;101169.08;108547;1267;62525;-82
2023/09/08 14:08:05;;;;;;;1.90;1.30;;;;;;;33.23;22.74;101168.09;108521;1262;59586;-82
2023/09/08 14:10:44;;;;;;;3.70;1.60;;;;;;;33.20;22.50;101168.44;108509;1262;57993;-82
2023/09/08 14:13:15;;;;;;;3.20;1.60;;;;;;;32.74;23.07;101168.70;108911;1256;64213;-82
2023/09/08 14:15:43;;;;;;;2.30;1.40;;;;;;;32.80;23.56;101167.04;108920;1256;59763;-82
2023/09/08 14:18:10;;;;;;;7.90;1.60;;;;;;;32.76;23.33;101161.81;108791;1257;64434;-83
2023/09/08 14:20:38;;;;;;;2.20;1.50;;;;;;;32.68;23.25;101161.13;108799;1257;58162;-82
2023/09/08 14:23:08;;;;;;;2.60;1.30;;;;;;;32.47;23.76;101157.20;108867;1256;57450;-82
2023/09/08 14:25:36;;;;;;;4.40;1.50;;;;;;;32.10;23.82;101157.88;108823;1259;65493;-82
2023/09/08 14:28:04;;;;;;;4.60;1.20;;;;;;;32.06;23.55;101152.40;108793;1257;58629;-82
2023/09/08 14:30:34;;;;;;;3.50;1.40;;;;;;;32.20;23.73;101147.35;108892;1256;64322;-82
2023/09/08 14:33:03;;;;;;;7.70;1.70;;;;;;;32.13;23.94;101148.83;108803;1256;58341;-81
2023/09/08 14:35:31;;;;;;;4.60;1.60;;;;;;;32.23;23.71;101142.89;108908;1256;58099;-82
2023/09/08 14:37:59;;;;;;;3.40;1.60;;;;;;;32.23;23.90;101141.27;108796;1256;62831;-82
2023/09/08 14:40:34;;;;;;;5.00;1.90;;;;;;;32.18;23.83;101136.70;108859;1256;59902;-82
2023/09/08 14:43:06;;;;;;;10.50;1.80;;;;;;;32.00;24.08;101133.46;109143;1253;73708;-82
2023/09/08 14:45:34;;;;;;;4.30;1.30;;;;;;;32.01;24.27;101128.79;108901;1253;58163;-82
2023/09/08 14:48:01;;;;;;;3.40;1.40;;;;;;;32.15;24.22;101124.67;108979;1253;57921;-82
2023/09/08 14:50:30;;;;;;;6.90;1.70;;;;;;;31.99;24.52;101118.91;108982;1253;64055;-82
2023/09/08 14:52:58;;;;;;;9.90;1.60;;;;;;;31.83;24.86;101119.61;108997;1253;59809;-82
2023/09/08 14:55:25;;;;;;;5.10;2.00;;;;;;;31.77;25.16;101115.13;108997;1253;74634;-82
2023/09/08 14:57:54;;;;;;;3.70;1.70;;;;;;;31.68;25.22;101110.64;109062;1254;57740;-82
2023/09/08 15:00:22;;;;;;;6.20;1.70;;;;;;;31.59;25.20;101105.41;108961;1253;59170;-82
2023/09/08 15:02:50;;;;;;;6.00;1.70;;;;;;;31.47;25.33;101102.06;109007;1254;62840;-82
2023/09/08 15:05:18;;;;;;;4.60;1.70;;;;;;;31.53;25.07;101099.70;109106;1254;58784;-82
2023/09/08 15:07:45;;;;;;;3.40;1.50;;;;;;;31.60;25.07;101095.57;109023;1254;63852;-82
2023/09/08 15:10:13;;;;;;;4.70;1.60;;;;;;;31.45;25.28;101088.67;108941;1254;57763;-82
2023/09/08 15:12:41;;;;;;;3.50;1.40;;;;;;;31.12;25.57;101089.36;108961;1253;58087;-82
2023/09/08 15:15:09;;;;;;;3.90;1.30;;;;;;;31.13;25.94;101089.36;108988;1253;62990;-82
2023/09/08 15:17:37;;;;;;;4.60;1.60;;;;;;;31.31;25.81;101095.13;109158;1253;59774;-82
2023/09/08 15:20:05;;;;;;;3.20;1.30;;;;;;;31.22;25.87;101095.72;109052;1253;63730;-82
2023/09/08 15:22:33;;;;;;;3.70;1.70;;;;;;;31.03;26.36;101091.23;108996;1253;58220;-82
2023/09/08 15:25:01;;;;;;;6.00;1.40;;;;;;;30.89;26.61;101092.77;109036;1253;58075;-82
2023/09/08 15:27:28;;;;;;;5.90;1.60;;;;;;;30.71;26.92;101088.96;108988;1253;64652;-82
2023/09/08 15:29:56;;;;;;;3.80;1.50;;;;;;;30.78;27.02;101086.70;109032;1253;59901;-82
2023/09/08 15:32:24;;;;;;;4.50;1.40;;;;;;;30.56;27.41;101085.31;109138;1253;63759;-83
2023/09/08 15:34:52;;;;;;;7.90;1.90;;;;;;;30.49;27.70;101079.91;109113;1253;58040;-83
2023/09/08 15:37:20;;;;;;;4.20;1.50;;;;;;;30.44;28.05;101071.44;109021;1254;57708;-83
2023/09/08 15:39:48;;;;;;;5.60;1.20;;;;;;;30.37;28.40;101068.77;108980;1258;62883;-82
2023/09/08 15:42:15;;;;;;;3.00;1.30;;;;;;;30.30;28.49;101068.77;108939;1253;60142;-82
2023/09/08 15:44:43;;;;;;;4.70;1.20;;;;;;;30.06;28.99;101067.65;108965;1253;62508;-82
2023/09/08 15:47:11;;;;;;;5.00;1.30;;;;;;;29.88;29.48;101068.96;108978;1257;57874;-82
2023/09/08 15:49:40;;;;;;;3.60;1.30;;;;;;;29.90;29.76;101065.50;108980;1253;57834;-82
2023/09/08 15:52:08;;;;;;;3.30;1.20;;;;;;;29.55;30.63;101067.02;109026;1253;63624;-82
2023/09/08 15:54:43;;;;;;;2.70;1.10;;;;;;;29.21;31.13;101070.52;108982;1253;59826;-82
2023/09/08 15:57:11;;;;;;;4.30;1.40;;;;;;;29.08;31.24;101072.68;108968;1253;63798;-82
2023/09/08 15:59:40;;;;;;;4.10;1.30;;;;;;;29.08;31.21;101069.31;109135;1253;57888;-82
2023/09/08 16:02:07;;;;;;;13.90;1.90;;;;;;;29.06;31.40;101069.29;109039;1253;57832;-82
2023/09/08 16:04:35;;;;;;;12.00;1.50;;;;;;;28.71;32.09;101070.20;109025;1253;62985;-82
2023/09/08 16:07:04;;;;;;;5.60;1.60;;;;;;;28.64;32.59;101072.88;109199;1253;59892;-81
2023/09/08 16:09:31;;;;;;;3.10;1.30;;;;;;;28.55;32.95;101074.23;109029;1253;63727;-81
2023/09/08 16:11:59;;;;;;;2.50;1.30;;;;;;;28.51;33.05;101069.62;109097;1256;57419;-82
2023/09/08 16:14:27;;;;;;;5.30;1.30;;;;;;;28.21;33.74;101071.23;109114;1254;57914;-80
2023/09/08 16:16:55;;;;;;;2.10;1.10;;;;;;;27.92;34.39;101070.27;109027;1253;64122;-81
2023/09/08 16:19:23;;;;;;;3.10;1.10;;;;;;;27.92;34.45;101068.73;109080;1254;59903;-81
2023/09/08 16:21:51;;;;;;;3.10;1.30;;;;;;;27.74;34.86;101068.57;109052;1256;62541;-82
2023/09/08 16:24:18;;;;;;;7.30;1.50;;;;;;;27.51;35.49;101064.52;108845;1253;58078;-81
2023/09/08 16:26:46;;;;;;;4.30;1.20;;;;;;;27.38;35.88;101066.26;109132;1254;58376;-82
2023/09/08 16:29:14;;;;;;;4.90;1.60;;;;;;;27.35;36.18;101067.17;109138;1253;64124;-82
2023/09/08 16:31:42;;;;;;;3.40;1.40;;;;;;;27.28;36.62;101066.13;109109;1252;60156;-82
2023/09/08 16:34:10;;;;;;;37.60;3.60;;;;;;;27.12;37.17;101065.86;109035;1254;63699;-82
2023/09/08 16:36:38;;;;;;;10.10;2.00;;;;;;;27.02;37.51;101062.81;108868;1259;57814;-82
2023/09/08 16:39:06;;;;;;;7.10;1.60;;;;;;;26.84;37.87;101064.05;109126;1253;57307;-82
2023/09/08 16:41:33;;;;;;;5.60;1.60;;;;;;;26.64;38.18;101059.71;109058;1253;64729;-82
2023/09/08 16:44:01;;;;;;;3.10;1.10;;;;;;;26.48;38.62;101057.96;109056;1257;59764;-82
2023/09/08 16:46:29;;;;;;;3.90;1.30;;;;;;;26.32;38.96;101060.09;108976;1254;62515;-82
2023/09/08 16:48:57;;;;;;;2.50;1.20;;;;;;;26.16;39.16;101063.39;108981;1253;58798;-82
2023/09/08 16:51:24;;;;;;;4.00;1.30;;;;;;;26.00;39.59;101062.14;108988;1253;58187;-82
2023/09/08 16:53:52;;;;;;;3.50;1.40;;;;;;;25.93;39.90;101061.58;108926;1253;63653;-82
2023/09/08 16:56:20;;;;;;;1.70;1.10;;;;;;;25.84;40.22;101060.18;108963;1253;60352;-82
2023/09/08 16:58:49;;;;;;;7.10;1.50;;;;;;;25.72;40.73;101062.57;109090;1254;63721;-82
2023/09/08 17:01:17;;;;;;;7.40;1.70;;;;;;;25.61;41.26;101064.02;108879;1255;58440;-82
2023/09/08 17:03:45;;;;;;;7.80;1.70;;;;;;;25.30;41.68;101057.81;108975;1253;58627;-82
2023/09/08 17:06:13;;;;;;;11.50;2.80;;;;;;;25.01;42.33;101058.17;108986;1258;74315;-82
2023/09/08 17:08:40;;;;;;;10.80;1.70;;;;;;;24.85;42.74;101059.45;109010;1253;67586;-82
2023/09/08 17:11:10;;;;;;;5.40;1.30;;;;;;;24.65;43.27;101058.81;108980;1253;72672;-82
2023/09/08 17:13:38;;;;;;;3.20;1.10;;;;;;;24.60;43.99;101056.77;108977;1253;58646;-82
2023/09/08 17:16:06;;;;;;;8.50;1.60;;;;;;;24.42;44.79;101057.39;109155;1254;59967;-82
2023/09/08 17:18:33;;;;;;;7.00;1.80;;;;;;;24.19;45.55;101057.49;109110;1254;73024;-82
2023/09/08 17:21:01;;;;;;;3.00;1.20;;;;;;;24.09;46.13;101060.48;108974;1255;68408;-82
2023/09/08 17:23:29;;;;;;;4.60;1.40;;;;;;;24.01;46.92;101060.21;108990;1254;72683;-82
2023/09/08 17:25:57;;;;;;;2.50;1.40;;;;;;;24.04;47.54;101056.52;108949;1257;59003;-82
2023/09/08 17:28:25;;;;;;;4.80;1.40;;;;;;;23.95;48.27;101061.21;109085;1253;60031;-82
2023/09/08 17:30:53;;;;;;;3.40;1.60;;;;;;;23.85;48.92;101059.16;108912;1253;73875;-82
2023/09/08 17:33:21;;;;;;;3.30;1.80;;;;;;;23.74;49.30;101056.63;108988;1254;69026;-82
2023/09/08 17:35:49;;;;;;;4.20;1.90;;;;;;;23.61;49.87;101061.54;108927;1257;71618;-82
2023/09/08 17:38:17;;;;;;;4.90;1.60;;;;;;;23.48;50.06;101061.67;108982;1254;61147;-82
2023/09/08 17:40:45;;;;;;;2.70;1.60;;;;;;;23.39;50.31;101058.13;109117;1253;59181;-82
2023/09/08 17:43:13;;;;;;;4.00;1.50;;;;;;;23.33;50.83;101057.05;108974;1253;73866;-83
2023/09/08 17:45:41;;;;;;;3.10;1.40;;;;;;;23.23;51.84;101053.56;108982;1253;68479;-83
2023/09/08 17:48:09;;;;;;;2.60;1.40;;;;;;;23.18;52.57;101051.09;108958;1254;72643;-82
2023/09/08 17:50:37;;;;;;;5.00;1.70;;;;;;;23.13;52.79;101052.23;108943;1253;61047;-82
2023/09/08 17:53:08;;;;;;;8.40;1.50;;;;;;;23.08;53.02;101054.30;108874;1254;58757;-82
2023/09/08 17:55:36;;;;;;;5.50;1.70;;;;;;;23.02;53.32;101050.35;109028;1254;72621;-82
2023/09/08 17:58:04;;;;;;;3.60;1.60;;;;;;;22.79;54.12;101052.15;109020;1253;69507;-82
2023/09/08 18:00:32;;;;;;;4.90;1.80;;;;;;;22.73;54.29;101053.14;109047;1253;71788;-82
2023/09/08 18:02:59;;;;;;;4.50;1.70;;;;;;;22.69;54.15;101047.05;109008;1254;58820;-82
2023/09/08 18:05:27;;;;;;;7.10;2.00;;;;;;;22.56;54.62;101043.72;109193;1256;62242;-82
2023/09/08 18:07:55;;;;;;;5.80;2.00;;;;;;;22.38;55.79;101049.82;108879;1253;73892;-82
2023/09/08 18:10:23;;;;;;;4.90;1.60;;;;;;;22.49;56.13;101052.42;109032;1254;67214;-82
2023/09/08 18:12:51;;;;;;;5.00;1.60;;;;;;;22.57;56.04;101053.38;108938;1253;74918;-82
2023/09/08 18:15:19;;;;;;;4.80;1.30;;;;;;;22.49;57.06;101051.20;109202;1252;63265;-81
2023/09/08 18:17:47;;;;;;;4.40;1.90;;;;;;;22.85;55.90;101043.55;109234;1252;59986;-82
2023/09/08 18:20:15;;;;;;;7.90;1.90;;;;;;;22.75;56.47;101042.93;109165;1253;73740;-81
2023/09/08 18:22:43;;;;;;;3.30;1.80;;;;;;;22.71;57.21;101044.95;109048;1254;70964;-82
2023/09/08 18:25:11;;;;;;;6.20;1.80;;;;;;;22.60;57.16;101045.08;109214;1253;72671;-82
2023/09/08 18:27:38;;;;;;;5.80;1.80;;;;;;;22.35;57.60;101042.86;109050;1253;62118;-82
2023/09/08 18:30:07;;;;;;;5.30;1.90;;;;;;;22.33;57.60;101045.49;109126;1254;61103;-81
2023/09/08 18:32:35;;;;;;;5.80;2.00;;;;;;;22.26;57.80;101038.82;108894;1253;73872;-82
2023/09/08 18:35:03;;;;;;;4.10;2.00;;;;;;;22.24;58.16;101034.85;109175;1253;69181;-82
2023/09/08 18:37:32;;;;;;;6.30;2.20;;;;;;;22.17;58.87;101034.97;109008;1253;73333;-82
2023/09/08 18:39:59;;;;;;;5.50;1.90;;;;;;;22.08;59.22;101030.98;108947;1254;61454;-81
2023/09/08 18:42:28;;;;;;;4.20;1.90;;;;;;;21.87;60.44;101033.73;109058;1253;61238;-82
2023/09/08 18:44:55;;;;;;;4.50;1.70;;;;;;;21.95;60.39;101028.06;109227;1253;75915;-82
2023/09/08 18:47:23;;;;;;;5.90;2.00;;;;;;;21.93;61.24;101025.30;109147;1254;68344;-82
2023/09/08 18:49:51;;;;;;;6.30;2.40;;;;;;;21.91;61.27;101021.59;109105;1254;71450;-81
2023/09/08 18:52:19;;;;;;;5.30;2.00;;;;;;;21.84;61.48;101023.48;109056;1253;58859;-81